Time;durP1;ratioP1;P1;durP2;ratioP2;P2;SDS_P1;SDS_P2;PMS_P1;PMS_P2;Temp;Humidity;BMP_temperature;BMP_pressure;BME280_temperature;BME280_humidity;BME280_pressure;Samples;Min_cycle;Max_cycle;Signal;HPM_P1;HPM_P2
2023/12/21 00:02:13;;;;;;;2.90;2.00;;;9.20;99.90;;;;;;5055769;28;20021;-70
2023/12/21 00:04:38;;;;;;;5.28;2.33;;;9.20;99.90;;;;;;5050953;28;20052;-69
2023/12/21 00:07:04;;;;;;;10.20;1.80;;;9.20;99.90;;;;;;5054464;28;20071;-69
2023/12/21 00:09:29;;;;;;;2.10;1.35;;;9.20;99.90;;;;;;5050823;28;20053;-70
2023/12/21 00:11:55;;;;;;;2.40;1.30;;;9.20;99.90;;;;;;5052034;28;20031;-69
2023/12/21 00:14:23;;;;;;;5.10;1.48;;;9.20;99.90;;;;;;5046744;28;20490;-70
2023/12/21 00:16:48;;;;;;;12.07;1.75;;;9.20;99.90;;;;;;5052300;28;20113;-69
2023/12/21 00:19:14;;;;;;;2.05;1.20;;;9.30;99.90;;;;;;5048753;28;20112;-68
2023/12/21 00:21:39;;;;;;;6.45;1.38;;;9.30;99.90;;;;;;5049155;28;20097;-68
2023/12/21 00:24:05;;;;;;;2.13;1.50;;;9.40;99.90;;;;;;5045202;28;20041;-70
2023/12/21 00:26:30;;;;;;;4.18;1.08;;;9.30;99.90;;;;;;5053133;28;20035;-70
2023/12/21 00:28:56;;;;;;;2.08;1.35;;;9.40;99.90;;;;;;5048728;28;20116;-69
2023/12/21 00:31:22;;;;;;;2.63;1.40;;;9.40;99.90;;;;;;5048442;28;20033;-67
2023/12/21 00:33:48;;;;;;;1.27;0.90;;;9.40;99.90;;;;;;5046564;28;20056;-69
2023/12/21 00:36:17;;;;;;;2.72;1.20;;;9.40;99.90;;;;;;5048585;28;20029;-68
2023/12/21 00:38:42;;;;;;;5.25;1.27;;;9.40;99.90;;;;;;5051721;28;20502;-68
2023/12/21 00:41:08;;;;;;;2.58;1.25;;;9.50;99.90;;;;;;5053617;28;20039;-69
2023/12/21 00:43:33;;;;;;;1.58;1.13;;;9.40;99.90;;;;;;5050057;28;20540;-69
2023/12/21 00:45:59;;;;;;;1.63;1.30;;;9.40;99.90;;;;;;5053247;28;20065;-70
2023/12/21 00:48:26;;;;;;;2.65;1.50;;;9.40;99.90;;;;;;5052919;28;20048;-67
2023/12/21 00:50:51;;;;;;;2.38;1.30;;;9.40;99.90;;;;;;5052229;28;20028;-69
2023/12/21 00:53:19;;;;;;;4.32;1.50;;;9.40;99.90;;;;;;5050392;28;20031;-69
2023/12/21 00:55:44;;;;;;;1.80;1.45;;;9.40;99.90;;;;;;5052131;28;20390;-68
2023/12/21 00:58:10;;;;;;;4.18;1.38;;;9.40;99.90;;;;;;5045574;28;20021;-69
2023/12/21 01:00:36;;;;;;;5.13;1.90;;;9.40;99.90;;;;;;5049021;28;20521;-69
2023/12/21 01:03:02;;;;;;;4.70;1.90;;;9.50;99.90;;;;;;5047269;28;20021;-70
2023/12/21 01:05:27;;;;;;;5.05;1.85;;;9.50;99.90;;;;;;5055285;28;20048;-69
2023/12/21 01:07:53;;;;;;;4.95;1.80;;;9.50;99.90;;;;;;5041711;28;20120;-69
2023/12/21 01:10:19;;;;;;;4.45;2.00;;;9.60;99.90;;;;;;5046590;28;20037;-68
2023/12/21 01:12:44;;;;;;;7.13;2.08;;;9.60;99.90;;;;;;5043749;28;20037;-70
2023/12/21 01:15:10;;;;;;;3.60;2.33;;;9.50;99.90;;;;;;5050449;28;20028;-69
2023/12/21 01:17:35;;;;;;;5.25;2.85;;;9.50;99.90;;;;;;5051974;28;20082;-69
2023/12/21 01:20:01;;;;;;;5.80;3.03;;;9.50;99.90;;;;;;5053447;28;20029;-69
2023/12/21 01:22:26;;;;;;;4.80;2.50;;;9.50;99.90;;;;;;5045204;28;20021;-70
2023/12/21 01:24:52;;;;;;;6.90;3.13;;;9.50;99.90;;;;;;5048176;28;20035;-69
2023/12/21 01:27:20;;;;;;;8.05;3.15;;;9.50;99.90;;;;;;5042941;28;20018;-69
2023/12/21 01:29:46;;;;;;;3.55;2.50;;;9.50;99.90;;;;;;5052695;28;20033;-69
2023/12/21 01:32:12;;;;;;;4.78;2.88;;;9.50;99.90;;;;;;5048164;28;20030;-70
2023/12/21 01:34:37;;;;;;;7.18;3.17;;;9.50;99.90;;;;;;5049917;28;20044;-70
2023/12/21 01:37:03;;;;;;;12.90;3.60;;;9.50;99.90;;;;;;5040925;28;20098;-68
2023/12/21 01:39:28;;;;;;;7.85;3.13;;;9.50;99.90;;;;;;5051059;28;20101;-69
2023/12/21 01:41:54;;;;;;;7.13;3.88;;;9.50;99.90;;;;;;5053772;28;20033;-69
2023/12/21 01:44:20;;;;;;;6.80;3.92;;;9.40;99.90;;;;;;5051707;28;20025;-70
2023/12/21 01:46:45;;;;;;;9.93;4.13;;;9.50;99.90;;;;;;5044385;28;20062;-69
2023/12/21 01:49:12;;;;;;;8.73;3.42;;;9.50;99.90;;;;;;5044071;28;20029;-70
2023/12/21 01:51:37;;;;;;;6.18;3.38;;;9.50;99.90;;;;;;5040839;28;20090;-69
2023/12/21 01:54:03;;;;;;;7.78;3.15;;;9.50;99.90;;;;;;5042132;28;20064;-69
2023/12/21 01:56:33;;;;;;;5.70;3.13;;;9.50;99.90;;;;;;5048076;28;20036;-69
2023/12/21 01:59:00;;;;;;;5.85;2.88;;;9.40;99.90;;;;;;5046776;28;20507;-68
2023/12/21 02:01:26;;;;;;;3.38;3.08;;;9.50;99.90;;;;;;5044495;28;20471;-69
2023/12/21 02:03:53;;;;;;;4.30;2.70;;;9.50;99.90;;;;;;5039849;28;20492;-68
2023/12/21 02:06:19;;;;;;;4.97;2.70;;;9.50;99.90;;;;;;5041697;28;20128;-68
2023/12/21 02:08:44;;;;;;;3.92;2.60;;;9.50;99.90;;;;;;5041164;28;20148;-68
2023/12/21 02:11:10;;;;;;;4.65;2.53;;;9.50;99.90;;;;;;5044021;28;20102;-66
2023/12/21 02:13:36;;;;;;;3.00;2.28;;;9.50;99.90;;;;;;5047215;28;20036;-69
2023/12/21 02:16:06;;;;;;;3.42;1.98;;;9.50;99.90;;;;;;5039394;28;20033;-70
2023/12/21 02:18:32;;;;;;;6.10;1.70;;;9.50;99.90;;;;;;5039869;28;20048;-68
2023/12/21 02:20:58;;;;;;;6.13;2.20;;;9.50;99.90;;;;;;5041992;28;20072;-69
2023/12/21 02:23:26;;;;;;;3.17;2.20;;;9.50;99.90;;;;;;5041701;28;20025;-67
2023/12/21 02:25:52;;;;;;;2.45;1.60;;;9.50;99.90;;;;;;5046445;28;20032;-66
2023/12/21 02:28:18;;;;;;;5.10;1.60;;;9.50;99.90;;;;;;5045729;28;20036;-67
2023/12/21 02:30:44;;;;;;;2.72;1.75;;;9.50;99.90;;;;;;5038922;28;20041;-70
2023/12/21 02:33:09;;;;;;;2.03;1.55;;;9.50;99.90;;;;;;5041446;28;20024;-69
2023/12/21 02:35:34;;;;;;;3.15;1.58;;;9.50;99.90;;;;;;5042818;28;20075;-70
2023/12/21 02:38:00;;;;;;;2.45;1.55;;;9.50;99.90;;;;;;5046386;28;20020;-67
2023/12/21 02:40:25;;;;;;;5.40;1.77;;;9.60;99.90;;;;;;5043721;28;20041;-66
2023/12/21 02:42:51;;;;;;;3.35;1.92;;;9.60;99.90;;;;;;5041358;28;20399;-67
2023/12/21 02:45:16;;;;;;;4.32;1.63;;;9.60;99.90;;;;;;5042392;28;20030;-67
2023/12/21 02:47:42;;;;;;;1.90;1.67;;;9.60;99.90;;;;;;5042785;28;20078;-67
2023/12/21 02:50:08;;;;;;;3.60;1.45;;;9.60;99.90;;;;;;5044712;28;20025;-67
2023/12/21 02:52:33;;;;;;;3.55;2.05;;;9.60;99.90;;;;;;5045724;28;20470;-67
2023/12/21 02:54:59;;;;;;;1.90;1.50;;;9.60;99.90;;;;;;5041229;28;20033;-70
2023/12/21 02:57:24;;;;;;;6.97;2.05;;;9.60;99.90;;;;;;5044236;28;20025;-68
2023/12/21 02:59:50;;;;;;;5.97;1.70;;;9.60;99.90;;;;;;5047435;28;20060;-67
2023/12/21 03:02:16;;;;;;;3.97;1.83;;;9.60;99.90;;;;;;5042651;28;20025;-68
2023/12/21 03:04:41;;;;;;;12.98;2.03;;;9.60;99.90;;;;;;5049017;28;20021;-70
2023/12/21 03:07:07;;;;;;;6.03;1.83;;;9.60;99.90;;;;;;5048968;28;20025;-67
2023/12/21 03:09:33;;;;;;;5.95;2.38;;;9.50;99.90;;;;;;5044034;28;20410;-70
2023/12/21 03:11:58;;;;;;;6.35;2.67;;;9.50;99.90;;;;;;5049386;28;20120;-66
2023/12/21 03:14:24;;;;;;;7.20;2.33;;;9.50;99.90;;;;;;5063719;28;20368;-67
2023/12/21 03:16:49;;;;;;;5.88;2.42;;;9.50;99.90;;;;;;5051116;28;20032;-67
2023/12/21 03:19:15;;;;;;;8.45;2.83;;;9.50;99.90;;;;;;5049312;28;20029;-68
2023/12/21 03:21:40;;;;;;;4.93;2.40;;;9.40;99.90;;;;;;5044353;28;20501;-67
2023/12/21 03:24:06;;;;;;;9.57;2.97;;;9.40;99.90;;;;;;5044899;28;20025;-67
2023/12/21 03:26:32;;;;;;;8.70;2.70;;;9.40;99.90;;;;;;5051123;28;20502;-66
2023/12/21 03:28:58;;;;;;;4.22;2.83;;;9.40;99.90;;;;;;5050812;28;20091;-66
2023/12/21 03:31:24;;;;;;;3.45;2.35;;;9.50;99.90;;;;;;5046347;28;20021;-67
2023/12/21 03:33:49;;;;;;;5.60;2.90;;;9.40;99.90;;;;;;5049262;28;20094;-67
2023/12/21 03:36:15;;;;;;;5.18;3.40;;;9.40;99.90;;;;;;5052019;28;20032;-68
2023/12/21 03:38:40;;;;;;;7.00;2.85;;;9.40;99.90;;;;;;5052213;28;20032;-68
2023/12/21 03:41:06;;;;;;;7.15;2.85;;;9.40;99.90;;;;;;5044191;28;20030;-67
2023/12/21 03:43:31;;;;;;;4.80;2.42;;;9.40;99.90;;;;;;5045415;28;20028;-68
2023/12/21 03:45:57;;;;;;;7.43;2.67;;;9.40;99.90;;;;;;5050176;28;20020;-67
2023/12/21 03:48:22;;;;;;;3.88;2.35;;;9.40;99.90;;;;;;5047265;28;20490;-68
2023/12/21 03:50:48;;;;;;;7.18;2.55;;;9.40;99.90;;;;;;5044185;28;20032;-68
2023/12/21 03:53:16;;;;;;;5.97;3.47;;;9.40;99.90;;;;;;5045467;28;20021;-68
2023/12/21 03:55:42;;;;;;;4.32;2.30;;;9.40;99.90;;;;;;5044657;28;20069;-68
2023/12/21 03:58:08;;;;;;;6.45;2.67;;;9.40;99.90;;;;;;5043236;28;20034;-68
2023/12/21 04:00:34;;;;;;;6.78;3.40;;;9.40;99.90;;;;;;5045438;28;20020;-67
2023/12/21 04:03:01;;;;;;;6.38;3.88;;;9.40;99.90;;;;;;5047612;28;20013;-68
2023/12/21 04:05:26;;;;;;;5.55;3.10;;;9.40;99.90;;;;;;5053778;28;20025;-67
2023/12/21 04:07:52;;;;;;;7.15;3.50;;;9.50;99.90;;;;;;5052584;28;20556;-67
2023/12/21 04:10:17;;;;;;;6.55;3.45;;;9.50;99.90;;;;;;5045195;28;20033;-68
2023/12/21 04:12:43;;;;;;;8.77;3.40;;;9.50;99.90;;;;;;5053003;28;20061;-68
2023/12/21 04:15:11;;;;;;;9.32;4.10;;;9.50;99.90;;;;;;5052520;28;20083;-68
2023/12/21 04:17:36;;;;;;;11.05;4.35;;;9.50;99.90;;;;;;5042859;28;20035;-67
2023/12/21 04:20:02;;;;;;;12.75;5.00;;;9.50;99.90;;;;;;5050680;28;20032;-68
2023/12/21 04:22:28;;;;;;;9.60;4.47;;;9.50;99.90;;;;;;5048786;28;20057;-68
2023/12/21 04:24:53;;;;;;;9.75;3.92;;;9.50;99.90;;;;;;5046236;28;20033;-67
2023/12/21 04:27:19;;;;;;;11.60;4.55;;;9.50;99.90;;;;;;5054181;28;20074;-68
2023/12/21 04:29:44;;;;;;;6.55;3.75;;;9.50;99.90;;;;;;5049654;28;20033;-66
2023/12/21 04:32:10;;;;;;;7.80;3.78;;;9.50;99.90;;;;;;5047190;28;20025;-66
2023/12/21 04:34:35;;;;;;;4.65;3.03;;;9.40;99.90;;;;;;5046963;28;20071;-68
2023/12/21 04:37:01;;;;;;;5.70;3.25;;;9.40;99.90;;;;;;5047462;28;20444;-67
2023/12/21 04:39:26;;;;;;;6.75;4.00;;;9.50;99.90;;;;;;5043823;28;20025;-69
2023/12/21 04:41:52;;;;;;;9.93;5.88;;;9.40;99.90;;;;;;5045608;28;20027;-69
2023/12/21 04:44:17;;;;;;;12.52;7.28;;;9.50;99.90;;;;;;5062976;28;20025;-68
2023/12/21 04:46:47;;;;;;;20.83;8.88;;;9.40;99.90;;;;;;5043368;28;20028;-68
2023/12/21 04:49:13;;;;;;;18.65;9.98;;;9.50;99.90;;;;;;5047465;28;20159;-68
2023/12/21 04:51:39;;;;;;;19.65;10.20;;;9.50;99.90;;;;;;5056823;28;20103;-68
2023/12/21 04:54:05;;;;;;;15.07;8.18;;;9.50;99.90;;;;;;5047796;28;20033;-68
2023/12/21 04:56:31;;;;;;;16.77;8.40;;;9.50;99.90;;;;;;5043752;28;20398;-68
2023/12/21 04:58:57;;;;;;;16.52;8.23;;;9.50;99.90;;;;;;5042172;28;20029;-68
2023/12/21 05:01:22;;;;;;;17.42;8.77;;;9.50;99.90;;;;;;5041155;28;20040;-66
2023/12/21 05:03:48;;;;;;;15.18;8.38;;;9.50;99.90;;;;;;5046419;28;20419;-67
2023/12/21 05:06:14;;;;;;;10.32;6.25;;;9.50;99.90;;;;;;5050055;28;20437;-68
2023/12/21 05:08:39;;;;;;;12.85;6.20;;;9.50;99.90;;;;;;5046261;28;20446;-68
2023/12/21 05:11:05;;;;;;;15.25;4.90;;;9.50;99.90;;;;;;5048493;28;20057;-68
2023/12/21 05:13:31;;;;;;;6.70;3.58;;;9.50;99.90;;;;;;5048233;28;20041;-68
2023/12/21 05:15:56;;;;;;;9.18;3.53;;;9.50;99.90;;;;;;5048482;28;20025;-66
2023/12/21 05:18:23;;;;;;;6.03;2.80;;;9.50;99.90;;;;;;5046234;28;20040;-67
2023/12/21 05:20:49;;;;;;;6.43;3.03;;;9.50;99.90;;;;;;5047345;28;20478;-67
2023/12/21 05:23:14;;;;;;;6.82;2.47;;;9.50;99.90;;;;;;5044073;28;20071;-68
2023/12/21 05:25:40;;;;;;;9.65;2.67;;;9.50;99.90;;;;;;5051252;28;20100;-67
2023/12/21 05:28:06;;;;;;;4.97;2.40;;;9.50;99.90;;;;;;5046245;28;20033;-67
2023/12/21 05:30:32;;;;;;;7.85;3.10;;;9.50;99.90;;;;;;5051478;28;20032;-68
2023/12/21 05:32:57;;;;;;;6.63;2.35;;;9.50;99.90;;;;;;5050713;28;20040;-68
2023/12/21 05:35:23;;;;;;;5.05;2.63;;;9.50;99.90;;;;;;5048512;28;20679;-68
2023/12/21 05:37:48;;;;;;;4.65;2.40;;;9.50;99.90;;;;;;5039384;28;20024;-68
2023/12/21 05:40:16;;;;;;;6.60;2.72;;;9.60;99.90;;;;;;5043080;28;20057;-67
2023/12/21 05:42:41;;;;;;;5.53;2.25;;;9.60;99.90;;;;;;5043507;28;20031;-68
2023/12/21 05:45:07;;;;;;;6.50;2.70;;;9.60;99.90;;;;;;5040122;28;20033;-68
2023/12/21 05:47:32;;;;;;;5.32;2.08;;;9.60;99.90;;;;;;5046011;28;20437;-68
2023/12/21 05:49:58;;;;;;;4.38;2.20;;;9.60;99.90;;;;;;5040248;28;20025;-69
2023/12/21 05:52:24;;;;;;;12.00;2.33;;;9.70;99.90;;;;;;5051916;28;20509;-69
2023/12/21 05:54:49;;;;;;;7.13;2.92;;;9.60;99.90;;;;;;5047671;28;20412;-70
2023/12/21 05:57:15;;;;;;;4.13;2.35;;;9.70;99.90;;;;;;5045956;28;20376;-69
2023/12/21 05:59:41;;;;;;;7.88;3.00;;;9.70;99.90;;;;;;5053716;28;20029;-69
2023/12/21 06:02:06;;;;;;;5.85;2.72;;;9.70;99.90;;;;;;5048795;28;20109;-69
2023/12/21 06:04:32;;;;;;;5.90;2.58;;;9.60;99.90;;;;;;5049723;28;20031;-69
2023/12/21 06:06:57;;;;;;;10.20;2.65;;;9.70;99.90;;;;;;5054978;28;20519;-70
2023/12/21 06:09:23;;;;;;;8.75;2.97;;;9.70;99.90;;;;;;5051774;28;20056;-70
2023/12/21 06:11:48;;;;;;;5.25;2.60;;;9.70;99.90;;;;;;5047833;28;20037;-70
2023/12/21 06:14:14;;;;;;;10.02;2.47;;;9.70;99.90;;;;;;5050546;28;20147;-68
2023/12/21 06:16:40;;;;;;;10.40;3.47;;;9.70;99.90;;;;;;5046156;28;20021;-69
2023/12/21 06:19:09;;;;;;;10.00;2.42;;;9.80;99.90;;;;;;5048887;28;20502;-70
2023/12/21 06:21:38;;;;;;;7.53;2.60;;;9.80;99.90;;;;;;5044300;28;20385;-70
2023/12/21 06:24:05;;;;;;;10.05;2.80;;;9.90;99.90;;;;;;5048414;28;20037;-69
2023/12/21 06:26:31;;;;;;;8.93;2.30;;;9.90;99.90;;;;;;5046462;28;20356;-67
2023/12/21 06:28:56;;;;;;;8.30;2.20;;;9.90;99.90;;;;;;5041185;28;20040;-69
2023/12/21 06:31:23;;;;;;;7.72;2.15;;;9.80;99.90;;;;;;5040699;28;20072;-69
2023/12/21 06:33:48;;;;;;;5.65;2.30;;;9.90;99.90;;;;;;5039242;28;20040;-69
2023/12/21 06:36:14;;;;;;;8.48;2.17;;;9.90;99.90;;;;;;5053901;28;20020;-69
2023/12/21 06:38:40;;;;;;;6.47;1.88;;;9.90;99.90;;;;;;5053633;28;20017;-69
2023/12/21 06:41:06;;;;;;;8.77;2.17;;;10.00;99.90;;;;;;5048554;28;20909;-69
2023/12/21 06:43:31;;;;;;;13.13;3.00;;;10.00;99.90;;;;;;5046498;28;20020;-70
2023/12/21 06:45:57;;;;;;;7.45;2.40;;;10.00;99.90;;;;;;5048795;28;20025;-70
2023/12/21 06:48:23;;;;;;;9.93;2.47;;;9.90;99.90;;;;;;5047100;28;20060;-70
2023/12/21 06:50:48;;;;;;;12.27;3.30;;;10.00;99.90;;;;;;5066082;28;20035;-68
2023/12/21 06:53:15;;;;;;;8.30;3.42;;;10.00;99.90;;;;;;5049940;28;20486;-69
2023/12/21 06:55:44;;;;;;;11.50;2.75;;;10.10;99.90;;;;;;5049019;28;20021;-68
2023/12/21 06:58:09;;;;;;;11.45;2.92;;;10.10;99.90;;;;;;5048180;28;20049;-69
2023/12/21 07:00:35;;;;;;;10.05;3.17;;;10.00;99.90;;;;;;5052348;28;20434;-69
2023/12/21 07:03:01;;;;;;;11.85;3.65;;;10.00;99.90;;;;;;5048168;28;20379;-70
2023/12/21 07:05:26;;;;;;;6.80;2.78;;;10.10;99.90;;;;;;5050038;28;20083;-69
2023/12/21 07:07:54;;;;;;;16.83;4.05;;;10.10;99.90;;;;;;5043728;28;20029;-69
2023/12/21 07:10:20;;;;;;;9.77;3.22;;;10.10;99.90;;;;;;5041430;28;20083;-70
2023/12/21 07:12:46;;;;;;;12.20;2.88;;;10.10;99.90;;;;;;5046471;28;20412;-69
2023/12/21 07:15:12;;;;;;;7.80;3.47;;;10.10;99.90;;;;;;5038202;28;20030;-70
2023/12/21 07:17:37;;;;;;;13.43;3.15;;;10.10;99.90;;;;;;5043130;28;20585;-70
2023/12/21 07:20:04;;;;;;;10.73;3.25;;;10.10;99.90;;;;;;5041790;28;20033;-71
2023/12/21 07:22:29;;;;;;;13.70;2.65;;;10.20;99.90;;;;;;5042953;28;20025;-69
2023/12/21 07:24:55;;;;;;;15.23;3.47;;;10.20;99.90;;;;;;5045896;28;20392;-69
2023/12/21 07:27:20;;;;;;;14.40;3.20;;;10.20;99.90;;;;;;5047686;28;20024;-69
2023/12/21 07:29:46;;;;;;;16.63;3.35;;;10.10;99.90;;;;;;5041414;28;20053;-69
2023/12/21 07:32:11;;;;;;;12.88;3.25;;;10.20;99.90;;;;;;5044024;28;20028;-68
2023/12/21 07:34:37;;;;;;;14.20;3.58;;;10.20;99.90;;;;;;5051003;28;20025;-68
2023/12/21 07:37:02;;;;;;;13.07;3.08;;;10.20;99.90;;;;;;5049741;28;20037;-71
2023/12/21 07:39:28;;;;;;;22.08;3.67;;;10.20;99.90;;;;;;5054268;28;20021;-70
2023/12/21 07:41:54;;;;;;;15.07;3.00;;;10.20;99.90;;;;;;5043727;28;20514;-70
2023/12/21 07:44:19;;;;;;;10.80;2.97;;;10.20;99.90;;;;;;5054000;28;20013;-69
2023/12/21 07:46:45;;;;;;;12.43;3.15;;;10.20;99.90;;;;;;5052091;28;20564;-70
2023/12/21 07:49:10;;;;;;;12.70;2.53;;;10.20;99.90;;;;;;5053586;28;20030;-70
2023/12/21 07:51:36;;;;;;;8.20;2.75;;;10.20;99.90;;;;;;5047609;28;20041;-69
2023/12/21 07:54:01;;;;;;;8.95;2.50;;;10.30;99.90;;;;;;5044219;28;20024;-70
2023/12/21 07:56:27;;;;;;;7.20;2.38;;;10.30;99.90;;;;;;5047677;28;20029;-69
2023/12/21 07:58:52;;;;;;;14.45;2.97;;;10.30;99.90;;;;;;5050628;28;20608;-70
2023/12/21 08:01:18;;;;;;;12.02;2.25;;;10.40;99.90;;;;;;5049211;28;20458;-69
2023/12/21 08:03:44;;;;;;;14.57;2.53;;;10.40;99.90;;;;;;5049153;28;20033;-70
2023/12/21 08:06:19;;;;;;;9.60;2.70;;;10.50;99.90;;;;;;5047961;28;20143;-69
2023/12/21 08:08:45;;;;;;;13.07;2.60;;;10.50;99.90;;;;;;5049299;28;20124;-68
2023/12/21 08:11:11;;;;;;;13.10;2.30;;;10.50;99.90;;;;;;5047765;28;20100;-68
2023/12/21 08:13:37;;;;;;;14.18;2.40;;;10.50;99.90;;;;;;5052275;28;20402;-70
2023/12/21 08:16:03;;;;;;;15.35;3.30;;;10.50;99.90;;;;;;5049141;28;20064;-69
2023/12/21 08:18:28;;;;;;;8.57;2.10;;;10.50;99.90;;;;;;5051526;28;20391;-70
2023/12/21 08:20:54;;;;;;;18.27;2.95;;;10.50;99.90;;;;;;5053081;28;20024;-69
2023/12/21 08:23:19;;;;;;;16.75;2.60;;;10.60;99.90;;;;;;5044179;28;20099;-69
2023/12/21 08:25:45;;;;;;;14.35;2.65;;;10.60;99.90;;;;;;5044964;28;20033;-65
2023/12/21 08:28:10;;;;;;;18.65;2.70;;;10.80;99.90;;;;;;5047538;28;20433;-64
2023/12/21 08:30:36;;;;;;;15.63;3.05;;;11.00;99.90;;;;;;5050597;28;20044;-65
2023/12/21 08:33:02;;;;;;;10.50;2.17;;;11.10;99.90;;;;;;5051632;28;20057;-66
2023/12/21 08:35:27;;;;;;;12.57;2.72;;;11.00;99.90;;;;;;5051284;28;20429;-66
2023/12/21 08:37:56;;;;;;;16.42;2.47;;;10.90;99.90;;;;;;5048846;28;20033;-64
2023/12/21 08:40:21;;;;;;;15.23;2.38;;;10.90;99.90;;;;;;5053884;28;20017;-65
2023/12/21 08:42:47;;;;;;;7.25;1.52;;;10.90;99.90;;;;;;5048775;28;20029;-65
2023/12/21 08:45:12;;;;;;;12.75;2.53;;;11.00;99.90;;;;;;5044276;28;20025;-65
2023/12/21 08:47:40;;;;;;;12.38;2.22;;;11.00;99.90;;;;;;5044126;28;20029;-65
2023/12/21 08:50:08;;;;;;;9.00;1.90;;;11.00;99.90;;;;;;5052425;28;20039;-65
2023/12/21 08:52:33;;;;;;;8.82;2.00;;;10.90;99.90;;;;;;5040360;28;20036;-66
2023/12/21 08:54:59;;;;;;;10.30;2.63;;;10.90;99.90;;;;;;5047726;28;20041;-65
2023/12/21 08:57:24;;;;;;;11.55;2.30;;;10.90;99.90;;;;;;5048137;28;20118;-65
2023/12/21 08:59:51;;;;;;;13.02;2.17;;;10.70;99.90;;;;;;5057953;28;20046;-66
2023/12/21 09:02:17;;;;;;;8.82;1.90;;;10.70;99.90;;;;;;5047322;28;20048;-66
2023/12/21 09:04:42;;;;;;;14.10;2.25;;;10.60;99.90;;;;;;5054627;28;20114;-66
2023/12/21 09:07:08;;;;;;;16.73;2.30;;;10.50;99.90;;;;;;5065069;28;20479;-66
2023/12/21 09:09:34;;;;;;;10.95;2.92;;;10.50;99.90;;;;;;5053450;28;20032;-66
2023/12/21 09:12:00;;;;;;;9.40;2.30;;;10.40;99.90;;;;;;5050144;28;20021;-67
2023/12/21 09:14:25;;;;;;;11.15;2.30;;;10.40;99.90;;;;;;5052040;28;20062;-66
2023/12/21 09:16:54;;;;;;;7.35;2.58;;;10.40;99.90;;;;;;5047724;28;20052;-65
2023/12/21 09:19:20;;;;;;;10.75;3.35;;;10.40;99.90;;;;;;5048259;28;20029;-66
2023/12/21 09:21:45;;;;;;;10.00;2.38;;;10.30;99.90;;;;;;5047368;28;20119;-63
2023/12/21 09:24:11;;;;;;;14.85;3.25;;;10.40;99.90;;;;;;5049219;28;20075;-65
2023/12/21 09:26:36;;;;;;;8.48;2.88;;;10.30;99.90;;;;;;5048789;28;20098;-66
2023/12/21 09:29:04;;;;;;;9.57;2.83;;;10.30;99.90;;;;;;5047543;28;20043;-65
2023/12/21 09:31:30;;;;;;;14.60;3.22;;;10.30;99.90;;;;;;5048795;28;20025;-66
2023/12/21 09:33:56;;;;;;;7.00;2.85;;;10.30;99.90;;;;;;5057350;28;20021;-65
2023/12/21 09:36:21;;;;;;;8.27;2.67;;;10.30;99.90;;;;;;5053211;28;20494;-66
2023/12/21 09:38:48;;;;;;;7.28;2.72;;;10.30;99.90;;;;;;5047856;28;20055;-66
2023/12/21 09:41:13;;;;;;;5.70;1.98;;;10.30;99.90;;;;;;5042096;28;20029;-67
2023/12/21 09:43:41;;;;;;;16.60;2.50;;;10.30;99.90;;;;;;5046519;28;20035;-67
2023/12/21 09:46:08;;;;;;;4.70;2.80;;;10.30;99.90;;;;;;5046633;28;20033;-65
2023/12/21 09:48:36;;;;;;;6.00;2.05;;;10.20;99.90;;;;;;5049109;28;20034;-66
2023/12/21 09:51:05;;;;;;;10.75;2.58;;;10.20;99.90;;;;;;5052456;28;20063;-66
2023/12/21 09:53:33;;;;;;;5.90;2.17;;;10.30;99.90;;;;;;5050858;28;20028;-66
2023/12/21 09:56:00;;;;;;;7.47;2.40;;;10.20;99.90;;;;;;5048321;28;20033;-65
2023/12/21 09:58:25;;;;;;;3.63;1.70;;;10.30;99.90;;;;;;5048499;28;20021;-65
2023/12/21 10:00:51;;;;;;;5.95;1.80;;;10.20;99.90;;;;;;5045933;28;20064;-67
2023/12/21 10:03:17;;;;;;;4.45;1.80;;;10.20;99.90;;;;;;5051249;28;20468;-65
2023/12/21 10:05:43;;;;;;;2.60;1.77;;;10.20;99.90;;;;;;5049542;28;20036;-65
2023/12/21 10:08:09;;;;;;;4.53;1.60;;;10.20;99.90;;;;;;5050202;28;20033;-64
2023/12/21 10:10:37;;;;;;;6.00;1.67;;;10.20;99.90;;;;;;5059532;28;20510;-65
2023/12/21 10:13:03;;;;;;;8.40;1.38;;;10.30;99.90;;;;;;5044301;28;20034;-65
2023/12/21 10:15:32;;;;;;;5.22;1.17;;;10.30;99.90;;;;;;5051440;28;20031;-66
2023/12/21 10:17:58;;;;;;;2.67;1.02;;;10.30;99.90;;;;;;5040758;28;20044;-65
2023/12/21 10:20:24;;;;;;;1.50;0.90;;;10.40;99.90;;;;;;5048758;28;20515;-66
2023/12/21 10:22:50;;;;;;;4.05;1.40;;;10.40;99.90;;;;;;5048553;28;20048;-67
2023/12/21 10:25:15;;;;;;;1.38;0.93;;;10.40;99.90;;;;;;5046981;28;20497;-66
2023/12/21 10:27:55;;;;;;;1.85;1.00;;;10.40;99.90;;;;;;5044857;28;20522;-65
2023/12/21 10:30:24;;;;;;;3.47;1.15;;;10.40;99.90;;;;;;5050623;28;20114;-64
2023/12/21 10:32:51;;;;;;;5.63;1.10;;;10.40;99.90;;;;;;5046318;28;20036;-66
2023/12/21 10:35:17;;;;;;;3.17;1.08;;;10.50;99.90;;;;;;5054821;28;20065;-65
2023/12/21 10:37:43;;;;;;;2.90;0.80;;;10.40;99.90;;;;;;5049826;28;20547;-66
2023/12/21 10:40:13;;;;;;;2.90;1.02;;;10.40;99.90;;;;;;5048355;28;20017;-66
2023/12/21 10:42:45;;;;;;;1.35;0.98;;;10.40;99.90;;;;;;5042163;28;20297;-66
2023/12/21 10:45:13;;;;;;;2.83;0.98;;;10.50;99.90;;;;;;5050532;28;20026;-66
2023/12/21 10:47:45;;;;;;;1.73;1.20;;;10.50;99.90;;;;;;5051769;28;20024;-66
2023/12/21 10:50:12;;;;;;;1.80;0.95;;;10.50;99.90;;;;;;5048693;28;20402;-65
2023/12/21 10:52:40;;;;;;;4.68;1.40;;;10.50;99.90;;;;;;5046305;28;20482;-66
2023/12/21 10:55:10;;;;;;;1.20;1.10;;;10.50;99.90;;;;;;5046180;28;20042;-66
2023/12/21 10:57:38;;;;;;;3.40;1.52;;;10.50;99.90;;;;;;5040153;28;20032;-66
2023/12/21 11:00:04;;;;;;;2.58;1.50;;;10.50;99.90;;;;;;5042257;28;20029;-64
2023/12/21 11:02:30;;;;;;;5.82;1.80;;;10.50;99.90;;;;;;5045137;28;20128;-66
2023/12/21 11:04:56;;;;;;;3.58;1.70;;;10.60;99.90;;;;;;5042514;28;20717;-66
2023/12/21 11:07:23;;;;;;;3.10;1.60;;;10.60;99.90;;;;;;5053333;28;20096;-66
2023/12/21 11:09:48;;;;;;;2.97;2.00;;;10.60;99.90;;;;;;5038949;28;20057;-66
2023/12/21 11:12:14;;;;;;;5.47;1.83;;;10.60;99.90;;;;;;5066096;28;20053;-65
2023/12/21 11:14:40;;;;;;;2.50;1.50;;;10.60;99.90;;;;;;5040988;28;20380;-66
2023/12/21 11:17:09;;;;;;;5.88;1.88;;;10.60;99.90;;;;;;5043296;28;20035;-65
2023/12/21 11:19:38;;;;;;;8.40;2.00;;;10.60;99.90;;;;;;5040856;28;20078;-65
2023/12/21 11:22:04;;;;;;;4.60;1.95;;;10.60;99.90;;;;;;5052468;28;20402;-65
2023/12/21 11:24:30;;;;;;;5.90;2.15;;;10.60;99.90;;;;;;5048335;28;20092;-65
2023/12/21 11:26:56;;;;;;;7.22;2.47;;;10.70;99.90;;;;;;5052238;28;20112;-63
2023/12/21 11:29:27;;;;;;;12.85;3.35;;;10.70;99.90;;;;;;5042997;28;20041;-66
2023/12/21 11:31:54;;;;;;;7.07;2.83;;;10.80;99.90;;;;;;5042695;28;20037;-65
2023/12/21 11:34:41;;;;;;;8.90;3.42;;;10.80;99.90;;;;;;5046821;28;20028;-65
2023/12/21 11:37:27;;;;;;;13.93;4.18;;;10.80;99.90;;;;;;5051159;28;20381;-66
2023/12/21 11:39:59;;;;;;;11.27;4.80;;;10.80;99.90;;;;;;5046284;28;20514;-65
2023/12/21 11:42:35;;;;;;;17.25;4.50;;;10.80;99.90;;;;;;5049913;28;20029;-65
2023/12/21 11:45:07;;;;;;;13.43;4.20;;;10.80;99.90;;;;;;5053428;28;20049;-65
2023/12/21 11:47:33;;;;;;;11.07;4.25;;;10.80;99.90;;;;;;5044756;28;20679;-66
2023/12/21 11:50:09;;;;;;;16.00;4.15;;;10.80;99.90;;;;;;5053563;28;20082;-67
2023/12/21 11:52:38;;;;;;;18.58;4.80;;;10.90;99.90;;;;;;5050437;28;20288;-65
2023/12/21 11:55:04;;;;;;;14.00;3.67;;;11.00;99.90;;;;;;5047588;28;20021;-64
2023/12/21 11:57:31;;;;;;;6.88;2.78;;;11.00;99.90;;;;;;5048317;28;20140;-65
2023/12/21 12:00:18;;;;;;;11.32;3.50;;;11.00;99.90;;;;;;5053888;28;20033;-66
2023/12/21 12:02:44;;;;;;;9.63;3.70;;;11.00;99.90;;;;;;5041538;28;20102;-63
2023/12/21 12:05:22;;;;;;;10.20;3.35;;;10.90;99.90;;;;;;5041069;28;20033;-64
2023/12/21 12:07:49;;;;;;;8.43;4.03;;;11.00;99.90;;;;;;5040480;28;20032;-64
2023/12/21 12:10:17;;;;;;;11.27;4.40;;;11.00;99.90;;;;;;5046441;28;20021;-64
2023/12/21 12:12:46;;;;;;;14.35;3.85;;;11.00;99.90;;;;;;5049578;28;20025;-65
2023/12/21 12:15:12;;;;;;;8.55;3.08;;;11.00;99.90;;;;;;5048219;28;20547;-66
2023/12/21 12:17:41;;;;;;;18.55;3.42;;;11.00;99.90;;;;;;5049294;28;20112;-65
2023/12/21 12:20:09;;;;;;;11.98;3.03;;;11.00;99.90;;;;;;5047638;28;20060;-64
2023/12/21 12:22:35;;;;;;;15.00;3.38;;;10.90;99.90;;;;;;5045364;28;20029;-65
2023/12/21 12:25:01;;;;;;;9.90;3.45;;;10.90;99.90;;;;;;5046178;28;20037;-65
2023/12/21 12:27:28;;;;;;;13.43;3.38;;;11.00;99.90;;;;;;5048084;28;20024;-65
2023/12/21 12:29:55;;;;;;;10.77;2.78;;;11.20;99.90;;;;;;5046779;28;20056;-65
2023/12/21 12:32:21;;;;;;;7.72;2.10;;;11.20;99.90;;;;;;5047714;28;20416;-64
2023/12/21 12:34:47;;;;;;;7.40;2.80;;;11.10;99.90;;;;;;5048125;28;20024;-66
2023/12/21 12:37:15;;;;;;;8.10;2.60;;;11.10;99.90;;;;;;5045988;28;20090;-65
2023/12/21 12:39:41;;;;;;;14.27;2.47;;;11.20;99.90;;;;;;5048277;28;20108;-65
2023/12/21 12:42:07;;;;;;;10.25;2.47;;;11.20;99.90;;;;;;5045592;28;20028;-64
2023/12/21 12:44:33;;;;;;;6.57;2.22;;;11.20;99.90;;;;;;5051399;28;20025;-65